Airport View

Enter AWOS ICAO identifier for current METAR.

ex. KFNL

KIAB 310456Z AUTO 16009KT 10SM CLR 21/13 A3018 RMK AO2 SLP212 T02060126 $

31 May 2020 05:00

Other Area AWOS: KBEC - KAAO - KICT - K3AU

TAF AMD KIAB 300105Z 3001/3024 VRB06KT 9999 FEW060 QNH3013INS BECMG 3014/3015 16015G20KT 9999 FEW045 QNH3006INS TX28/3018Z TN15/3011Z LAST NO AMDS AFT 3001 NEXT 0110